createdAt,value
2022-12-12T00:01:30.210Z,101197.47
2022-12-12T00:03:59.099Z,101197.41
2022-12-12T00:06:29.529Z,101198.31
2022-12-12T00:08:57.907Z,101200.81
2022-12-12T00:11:27.298Z,101202.56
2022-12-12T00:13:55.699Z,101205.09
2022-12-12T00:16:25.613Z,101209.44
2022-12-12T00:18:54.303Z,101202.53
2022-12-12T00:21:26.316Z,101205.91
2022-12-12T00:23:56.326Z,101207.69
2022-12-12T00:26:27.419Z,101199.94
2022-12-12T00:28:56.159Z,101196.53
2022-12-12T00:31:24.689Z,101196.47
2022-12-12T00:33:53.184Z,101199.09
2022-12-12T00:36:24.781Z,101199.09
2022-12-12T00:38:55.950Z,101206.88
2022-12-12T00:41:24.728Z,101199.09
2022-12-12T00:43:53.173Z,101203.47
2022-12-12T00:46:24.085Z,101195.72
2022-12-12T00:48:58.525Z,101206.94
2022-12-12T00:51:29.647Z,101206.06
2022-12-12T00:54:00.837Z,101200.91
2022-12-12T00:56:30.894Z,101198.34
2022-12-12T00:58:59.525Z,101196.59
2022-12-12T01:01:30.587Z,101196.59
2022-12-12T01:03:59.855Z,101206.88
2022-12-12T01:06:28.951Z,101207.69
2022-12-12T01:08:59.056Z,101206.94
2022-12-12T01:11:27.769Z,101217.34
2022-12-12T01:13:56.778Z,101206.94
2022-12-12T01:16:26.099Z,101219.09
2022-12-12T01:18:54.565Z,101221.69
2022-12-12T01:21:23.324Z,101225.22
2022-12-12T01:23:51.959Z,101218.34
2022-12-12T01:26:24.262Z,101226.09
2022-12-12T01:28:53.780Z,101233.84
2022-12-12T01:31:22.840Z,101232.97
2022-12-12T01:33:51.232Z,101231.25
2022-12-12T01:36:23.486Z,101231.25
2022-12-12T01:38:56.891Z,101234.69
2022-12-12T01:41:27.391Z,101234.59
2022-12-12T01:43:56.187Z,101236.31
2022-12-12T01:46:52.131Z,101232.78
2022-12-12T01:49:25.847Z,101227.59
2022-12-12T01:51:58.887Z,101238.06
2022-12-12T01:54:31.749Z,101232.09
2022-12-12T01:57:05.218Z,101235.44
2022-12-12T01:59:35.818Z,101241.47
2022-12-12T02:02:04.300Z,101234.59
2022-12-12T02:04:33.007Z,101241.47
2022-12-12T02:07:01.572Z,101240.59
2022-12-12T02:09:29.951Z,101238.75
2022-12-12T02:12:00.551Z,101234.41
2022-12-12T02:14:33.188Z,101238.69
2022-12-12T02:17:25.445Z,101236.91
2022-12-12T02:20:45.746Z,101231.63
2022-12-12T02:23:55.270Z,101226.34
2022-12-12T02:27:20.792Z,101233.13
2022-12-12T02:30:13.405Z,101236.50
2022-12-12T02:33:19.908Z,101240.72
2022-12-12T02:36:04.266Z,101239.94
2022-12-12T02:38:46.632Z,101233.94
2022-12-12T02:41:22.144Z,101236.50
2022-12-12T02:44:06.342Z,101245.09
2022-12-12T02:46:42.241Z,101243.38
2022-12-12T02:49:17.961Z,101238.22
2022-12-12T02:51:47.388Z,101243.38
2022-12-12T02:54:17.932Z,101240.72
2022-12-12T02:56:51.713Z,101250.31
2022-12-12T02:59:27.681Z,101251.22
2022-12-12T03:02:33.076Z,101245.88
2022-12-12T03:05:43.985Z,101251.00
2022-12-12T03:08:29.309Z,101248.34
2022-12-12T03:11:02.350Z,101257.06
2022-12-12T03:13:43.618Z,101251.88
2022-12-12T03:16:26.459Z,101258.75
2022-12-12T03:19:00.195Z,101259.63
2022-12-12T03:21:40.826Z,101254.38
2022-12-12T03:24:18.051Z,101256.78
2022-12-12T03:26:52.202Z,101261.13
2022-12-12T03:29:27.324Z,101264.69
2022-12-12T03:32:02.010Z,101265.41
2022-12-12T03:34:37.565Z,101267.25
2022-12-12T03:37:12.900Z,101268.19
2022-12-12T03:39:47.526Z,101270.06
2022-12-12T03:42:22.176Z,101267.38
2022-12-12T03:44:54.599Z,101272.69
2022-12-12T03:47:28.913Z,101262.34
2022-12-12T03:50:03.606Z,101271.06
2022-12-12T03:52:38.966Z,101260.72
2022-12-12T03:55:14.583Z,101268.47
2022-12-12T03:57:52.108Z,101265.09
2022-12-12T04:00:21.064Z,101273.72
2022-12-12T04:02:56.332Z,101272.84
2022-12-12T04:05:29.871Z,101276.28
2022-12-12T04:08:09.032Z,101274.66
2022-12-12T04:11:05.208Z,101278.88
2022-12-12T04:13:44.471Z,101278.00
2022-12-12T04:16:16.795Z,101277.03
2022-12-12T04:18:54.538Z,101279.63
2022-12-12T04:21:54.135Z,101283.16
2022-12-12T04:24:31.401Z,101286.56
2022-12-12T04:27:08.524Z,101290.84
2022-12-12T04:29:42.737Z,101287.38
2022-12-12T04:32:18.438Z,101285.59
2022-12-12T04:34:53.430Z,101290.75
2022-12-12T04:37:33.997Z,101295.94
2022-12-12T04:40:09.235Z,101291.50
2022-12-12T04:42:44.008Z,101291.50
2022-12-12T04:45:16.767Z,101294.00
2022-12-12T04:47:49.521Z,101293.22
2022-12-12T04:50:18.591Z,101293.22
2022-12-12T04:52:51.698Z,101294.84
2022-12-12T04:55:25.120Z,101291.31
2022-12-12T04:57:55.555Z,101292.25
2022-12-12T05:00:25.519Z,101282.47
2022-12-12T05:03:03.689Z,101298.09
2022-12-12T05:05:41.491Z,101297.34
2022-12-12T05:08:16.054Z,101309.47
2022-12-12T05:10:48.244Z,101289.56
2022-12-12T05:13:19.819Z,101299.88
2022-12-12T05:15:49.910Z,101305.84
2022-12-12T05:18:18.755Z,101305.84
2022-12-12T05:20:47.093Z,101310.13
2022-12-12T05:23:15.624Z,101310.13
2022-12-12T05:25:45.265Z,101304.97
2022-12-12T05:28:13.568Z,101295.44
2022-12-12T05:30:42.048Z,101298.09
2022-12-12T05:33:10.291Z,101293.81
2022-12-12T05:35:38.580Z,101293.81
2022-12-12T05:38:06.828Z,101294.72
2022-12-12T05:40:44.934Z,101298.25
2022-12-12T05:43:14.614Z,101302.50
2022-12-12T05:45:43.026Z,101298.25
2022-12-12T05:48:11.344Z,101292.94
2022-12-12T05:50:39.555Z,101297.34
2022-12-12T05:53:08.094Z,101293.09
2022-12-12T05:55:36.938Z,101297.34
2022-12-12T05:58:05.236Z,101298.09
2022-12-12T06:00:34.922Z,101300.84
2022-12-12T06:03:03.172Z,101298.19
2022-12-12T06:05:31.440Z,101301.50
2022-12-12T06:07:59.801Z,101299.72
2022-12-12T06:10:28.120Z,101296.19
2022-12-12T06:12:56.362Z,101297.97
2022-12-12T06:15:24.925Z,101298.00
2022-12-12T06:17:56.980Z,101303.25
2022-12-12T06:20:25.440Z,101297.28
2022-12-12T06:22:54.140Z,101302.50
2022-12-12T06:25:22.595Z,101298.25
2022-12-12T06:27:51.040Z,101296.47
2022-12-12T06:30:19.560Z,101286.88
2022-12-12T06:32:47.890Z,101293.47
2022-12-12T06:35:17.705Z,101299.00
2022-12-12T06:37:45.930Z,101303.69
2022-12-12T06:40:14.807Z,101306.50
2022-12-12T06:42:48.253Z,101311.16
2022-12-12T06:45:17.401Z,101308.06
2022-12-12T06:47:45.715Z,101306.72
2022-12-12T06:50:15.832Z,101308.63
2022-12-12T06:52:47.741Z,101311.88
2022-12-12T06:55:16.121Z,101309.94
2022-12-12T06:57:44.451Z,101309.94
2022-12-12T07:00:13.981Z,101309.94
2022-12-12T07:02:42.360Z,101312.53
2022-12-12T07:05:11.382Z,101309.81
2022-12-12T07:07:39.830Z,101315.69
2022-12-12T07:10:10.333Z,101318.19
2022-12-12T07:12:39.700Z,101322.47
2022-12-12T07:15:08.893Z,101320.84
2022-12-12T07:17:37.251Z,101326.97
2022-12-12T07:20:06.234Z,101328.88
2022-12-12T07:22:34.679Z,101330.81
2022-12-12T07:25:02.949Z,101330.06
2022-12-12T07:27:32.934Z,101332.88
2022-12-12T07:30:01.200Z,101344.16
2022-12-12T07:32:29.432Z,101347.69
2022-12-12T07:34:58.380Z,101345.44
2022-12-12T07:37:27.015Z,101342.19
2022-12-12T07:39:55.340Z,101339.75
2022-12-12T07:42:23.605Z,101333.84
2022-12-12T07:44:53.315Z,101351.34
2022-12-12T07:47:21.676Z,101350.53
2022-12-12T07:49:50.048Z,101348.91
2022-12-12T07:52:18.349Z,101357.75
2022-12-12T07:54:46.586Z,101356.13
2022-12-12T07:57:15.203Z,101353.72
2022-12-12T07:59:43.736Z,101354.72
2022-12-12T08:02:13.534Z,101361.72
2022-12-12T08:04:41.926Z,101362.78
2022-12-12T08:07:10.248Z,101368.81
2022-12-12T08:09:38.946Z,101362.13
2022-12-12T08:12:08.237Z,101365.56
2022-12-12T08:14:38.077Z,101367.50
2022-12-12T08:17:06.602Z,101369.41
2022-12-12T08:19:36.279Z,101361.88
2022-12-12T08:22:04.728Z,101352.34
2022-12-12T08:24:33.055Z,101367.41
2022-12-12T08:27:01.832Z,101374.56
2022-12-12T08:29:30.176Z,101367.09
2022-12-12T08:31:58.674Z,101368.22
2022-12-12T08:34:27.379Z,101370.72
2022-12-12T08:36:57.055Z,101363.50
2022-12-12T08:39:25.378Z,101375.16
2022-12-12T08:41:53.726Z,101371.31
2022-12-12T08:44:23.048Z,101360.53
2022-12-12T08:46:51.515Z,101371.03
2022-12-12T08:49:20.225Z,101367.63
2022-12-12T08:51:48.677Z,101367.09
2022-12-12T08:54:18.900Z,101369.25
2022-12-12T08:56:47.568Z,101388.38
2022-12-12T08:59:16.237Z,101379.13
2022-12-12T09:01:44.769Z,101382.75
2022-12-12T09:04:14.689Z,101382.75
2022-12-12T09:06:43.678Z,101389.59
2022-12-12T09:09:11.993Z,101385.91
2022-12-12T09:11:41.727Z,101394.63
2022-12-12T09:14:10.719Z,101398.91
2022-12-12T09:16:39.066Z,101406.75
2022-12-12T09:19:07.515Z,101415.59
2022-12-12T09:21:35.978Z,101413.34
2022-12-12T09:24:08.024Z,101411.28
2022-12-12T09:26:36.873Z,101414.63
2022-12-12T09:29:07.045Z,101414.44
2022-12-12T09:31:35.516Z,101411.59
2022-12-12T09:34:03.961Z,101407.50
2022-12-12T09:36:32.329Z,101404.03
2022-12-12T09:39:00.658Z,101401.25
2022-12-12T09:41:30.808Z,101410.63
2022-12-12T09:44:03.588Z,101417.56
2022-12-12T09:46:38.620Z,101407.31
2022-12-12T09:49:15.928Z,101408.94
2022-12-12T09:51:48.762Z,101410.50
2022-12-12T09:54:20.581Z,101406.03
2022-12-12T09:57:12.231Z,101403.06
2022-12-12T09:59:45.732Z,101408.66
2022-12-12T10:02:38.747Z,101404.78
2022-12-12T10:05:21.694Z,101404.63
2022-12-12T10:08:00.564Z,101408.81
2022-12-12T10:10:33.086Z,101404.56
2022-12-12T10:13:06.199Z,101407.28
2022-12-12T10:15:40.059Z,101397.16
2022-12-12T10:18:17.645Z,101393.81
2022-12-12T10:20:51.634Z,101390.34
2022-12-12T10:23:30.464Z,101388.66
2022-12-12T10:26:03.305Z,101387.91
2022-12-12T10:28:33.843Z,101388.19
2022-12-12T10:31:30.237Z,101387.56
2022-12-12T10:34:23.541Z,101391.09
2022-12-12T10:37:11.047Z,101392.13
2022-12-12T10:39:51.027Z,101387.09
2022-12-12T10:42:28.084Z,101392.41
2022-12-12T10:45:19.420Z,101389.13
2022-12-12T10:47:49.036Z,101381.72
2022-12-12T10:50:28.534Z,101382.88
2022-12-12T10:52:56.888Z,101384.91
2022-12-12T10:55:41.877Z,101380.00
2022-12-12T10:58:10.283Z,101380.41
2022-12-12T11:00:41.798Z,101378.13
2022-12-12T11:03:22.665Z,101377.50
2022-12-12T11:05:52.628Z,101382.81
2022-12-12T11:08:27.175Z,101385.66
2022-12-12T11:11:08.641Z,101374.63
2022-12-12T11:13:50.313Z,101374.72
2022-12-12T11:16:22.131Z,101374.09
2022-12-12T11:19:05.054Z,101373.47
2022-12-12T11:21:37.492Z,101376.34
2022-12-12T11:24:10.649Z,101381.69
2022-12-12T11:26:46.856Z,101384.56
2022-12-12T11:29:35.510Z,101373.53
2022-12-12T11:32:05.024Z,101366.72
2022-12-12T11:34:36.516Z,101367.69
2022-12-12T11:37:06.271Z,101369.28
2022-12-12T11:39:43.663Z,101363.91
2022-12-12T11:42:30.372Z,101364.78
2022-12-12T11:45:02.626Z,101363.97
2022-12-12T11:47:38.669Z,101370.16
2022-12-12T11:50:23.779Z,101360.75
2022-12-12T11:52:56.765Z,101352.97
2022-12-12T11:55:37.643Z,101359.13
2022-12-12T11:58:20.516Z,101354.72
2022-12-12T12:00:59.159Z,101350.31
2022-12-12T12:03:40.067Z,101345.97
2022-12-12T12:06:37.817Z,101340.44
2022-12-12T12:09:24.493Z,101353.00
2022-12-12T12:12:05.284Z,101350.06
2022-12-12T12:15:17.669Z,101346.88
2022-12-12T12:18:13.028Z,101340.50
2022-12-12T12:21:07.411Z,101335.19
2022-12-12T12:23:50.271Z,101342.66
2022-12-12T12:26:41.231Z,101337.22
2022-12-12T12:29:33.961Z,101334.63
2022-12-12T12:32:12.599Z,101342.38
2022-12-12T12:34:56.255Z,101345.91
2022-12-12T12:37:43.521Z,101336.78
2022-12-12T12:40:28.216Z,101342.41
2022-12-12T12:43:18.259Z,101340.19
2022-12-12T12:45:54.042Z,101335.31
2022-12-12T12:48:29.711Z,101339.75
2022-12-12T12:51:07.179Z,101338.16
2022-12-12T12:53:41.877Z,101340.06
2022-12-12T12:56:26.227Z,101339.22
2022-12-12T12:59:01.564Z,101342.84
2022-12-12T13:01:36.461Z,101339.69
2022-12-12T13:04:15.462Z,101341.59
2022-12-12T13:06:49.368Z,101338.25
2022-12-12T13:09:29.673Z,101339.16
2022-12-12T13:12:05.606Z,101333.38
2022-12-12T13:14:49.119Z,101326.41
2022-12-12T13:17:21.783Z,101330.44
2022-12-12T13:19:53.486Z,101332.88
2022-12-12T13:22:34.558Z,101327.94
2022-12-12T13:25:14.983Z,101327.53
2022-12-12T13:27:47.940Z,101324.91
2022-12-12T13:30:24.184Z,101327.44
2022-12-12T13:33:12.094Z,101329.16
2022-12-12T13:35:47.006Z,101324.75
2022-12-12T13:38:21.702Z,101330.59
2022-12-12T13:40:58.670Z,101325.19
2022-12-12T13:43:32.035Z,101335.25
2022-12-12T13:46:40.270Z,101332.28
2022-12-12T13:49:28.435Z,101336.38
2022-12-12T13:52:27.880Z,101343.03
2022-12-12T13:55:22.661Z,101340.25
2022-12-12T13:58:35.534Z,101340.91
2022-12-12T14:01:32.043Z,101344.16
2022-12-12T14:04:03.707Z,101337.97
2022-12-12T14:06:32.793Z,101344.94
2022-12-12T14:09:01.422Z,101342.28
2022-12-12T14:11:34.901Z,101340.38
2022-12-12T14:14:17.822Z,101339.22
2022-12-12T14:16:56.617Z,101346.81
2022-12-12T14:19:37.802Z,101340.47
2022-12-12T14:22:06.123Z,101342.00
2022-12-12T14:25:07.206Z,101348.56
2022-12-12T14:28:15.777Z,101343.13
2022-12-12T14:30:50.426Z,101348.03
2022-12-12T14:34:14.137Z,101354.91
2022-12-12T14:37:22.913Z,101354.97
2022-12-12T14:40:14.864Z,101354.03
2022-12-12T14:43:19.385Z,101358.16
2022-12-12T14:45:40.895Z,101370.16
2022-12-12T14:48:22.843Z,101372.69
2022-12-12T14:51:00.234Z,101353.47
2022-12-12T14:53:35.442Z,101359.31
2022-12-12T14:56:09.588Z,101363.41
2022-12-12T14:58:42.061Z,101359.75
2022-12-12T15:01:10.925Z,101367.38
2022-12-12T15:03:44.033Z,101365.47
2022-12-12T15:06:37.011Z,101358.25
2022-12-12T15:09:17.846Z,101369.09
2022-12-12T15:11:47.191Z,101354.97
2022-12-12T15:14:26.950Z,101366.72
2022-12-12T15:17:01.760Z,101366.28
2022-12-12T15:19:35.655Z,101366.75
2022-12-12T15:22:05.783Z,101362.63
2022-12-12T15:24:40.643Z,101366.41
2022-12-12T15:27:09.187Z,101363.97
2022-12-12T15:29:39.216Z,101358.00
2022-12-12T15:32:17.898Z,101357.13
2022-12-12T15:34:49.920Z,101349.50
2022-12-12T15:37:26.140Z,101360.81
2022-12-12T15:40:21.094Z,101360.03
2022-12-12T15:42:55.492Z,101363.75
2022-12-12T15:45:28.986Z,101364.88
2022-12-12T15:47:58.018Z,101366.91
2022-12-12T15:50:31.083Z,101367.31
2022-12-12T15:53:07.842Z,101375.34
2022-12-12T15:55:37.914Z,101374.84
2022-12-12T15:58:06.302Z,101377.78
2022-12-12T16:00:40.470Z,101380.75
2022-12-12T16:03:23.466Z,101381.22
2022-12-12T16:06:06.506Z,101380.81
2022-12-12T16:08:48.105Z,101385.78
2022-12-12T16:11:43.092Z,101385.25
2022-12-12T16:14:42.793Z,101387.31
2022-12-12T16:17:14.714Z,101382.81
2022-12-12T16:19:56.495Z,101384.31
2022-12-12T16:22:35.753Z,101386.47
2022-12-12T16:25:19.935Z,101385.28
2022-12-12T16:27:57.706Z,101396.13
2022-12-12T16:30:27.275Z,101390.97
2022-12-12T16:32:56.039Z,101384.03
2022-12-12T16:35:26.056Z,101383.06
2022-12-12T16:37:54.445Z,101382.13
2022-12-12T16:40:23.377Z,101378.38
2022-12-12T16:42:56.974Z,101375.47
2022-12-12T16:45:25.384Z,101370.94
2022-12-12T16:47:53.895Z,101363.84
2022-12-12T16:50:22.473Z,101360.28
2022-12-12T16:52:50.775Z,101365.28
2022-12-12T16:55:24.599Z,101367.91
2022-12-12T16:57:54.276Z,101375.56
2022-12-12T17:00:22.838Z,101380.69
2022-12-12T17:02:51.134Z,101382.28
2022-12-12T17:05:23.743Z,101378.72
2022-12-12T17:07:53.439Z,101381.09
2022-12-12T17:10:24.587Z,101388.66
2022-12-12T17:12:55.475Z,101396.97
2022-12-12T17:15:27.662Z,101395.03
2022-12-12T17:17:56.861Z,101399.97
2022-12-12T17:20:26.261Z,101400.78
2022-12-12T17:22:55.601Z,101403.16
2022-12-12T17:25:24.832Z,101396.84
2022-12-12T17:27:54.734Z,101399.31
2022-12-12T17:30:23.356Z,101390.56
2022-12-12T17:35:37.802Z,101392.31
2022-12-12T17:38:09.182Z,101386.19
2022-12-12T17:40:44.387Z,101391.16
2022-12-12T17:43:14.192Z,101393.56
2022-12-12T17:45:42.539Z,101389.91
2022-12-12T17:48:10.959Z,101397.59
2022-12-12T17:50:41.771Z,101390.19
2022-12-12T17:53:10.606Z,101372.19
2022-12-12T17:55:51.715Z,101394.28
2022-12-12T17:58:28.001Z,101396.34
2022-12-12T18:00:57.985Z,101390.41
2022-12-12T18:03:26.421Z,101393.94
2022-12-12T18:05:54.671Z,101387.13
2022-12-12T18:08:23.017Z,101395.97
2022-12-12T18:10:51.366Z,101398.94
2022-12-12T18:13:21.090Z,101389.19
2022-12-12T18:15:56.269Z,101390.34
2022-12-12T18:18:26.347Z,101391.31
2022-12-12T18:20:54.778Z,101387.97
2022-12-12T18:23:23.375Z,101373.06
2022-12-12T18:25:51.595Z,101367.84
2022-12-12T18:28:21.271Z,101367.56
2022-12-12T18:30:51.054Z,101369.78
2022-12-12T18:33:19.422Z,101370.47
2022-12-12T18:35:47.672Z,101375.53
2022-12-12T18:38:16.942Z,101379.63
2022-12-12T18:40:45.244Z,101372.50
2022-12-12T18:43:13.490Z,101382.41
2022-12-12T18:45:43.093Z,101376.91
2022-12-12T18:48:11.480Z,101378.41
2022-12-12T18:50:39.778Z,101368.47
2022-12-12T18:53:08.630Z,101372.81
2022-12-12T18:55:41.838Z,101375.97
2022-12-12T18:58:10.933Z,101388.91
2022-12-12T19:00:40.302Z,101383.50
2022-12-12T19:03:10.505Z,101384.91
2022-12-12T19:05:43.080Z,101392.34
2022-12-12T19:08:14.658Z,101386.91
2022-12-12T19:10:42.874Z,101385.13
2022-12-12T19:13:11.231Z,101380.81
2022-12-12T19:15:40.683Z,101379.13
2022-12-12T19:18:10.644Z,101378.41
2022-12-12T19:20:38.972Z,101373.38
2022-12-12T19:23:07.285Z,101371.59
2022-12-12T19:25:42.602Z,101380.19
2022-12-12T19:28:12.362Z,101381.78
2022-12-12T19:30:44.080Z,101388.59
2022-12-12T19:33:13.792Z,101388.59
2022-12-12T19:35:42.104Z,101392.94
2022-12-12T19:38:10.495Z,101391.84
2022-12-12T19:40:38.896Z,101398.78
2022-12-12T19:43:07.168Z,101399.16
2022-12-12T19:45:35.566Z,101402.28
2022-12-12T19:48:03.848Z,101393.19
2022-12-12T19:50:33.527Z,101396.53
2022-12-12T19:53:01.821Z,101397.94
2022-12-12T19:55:30.167Z,101398.34
2022-12-12T19:58:00.486Z,101399.47
2022-12-12T20:00:28.853Z,101406.50
2022-12-12T20:02:58.318Z,101407.69
2022-12-12T20:05:26.695Z,101407.34
2022-12-12T20:07:57.825Z,101400.13
2022-12-12T20:10:26.084Z,101396.28
2022-12-12T20:12:58.545Z,101391.44
2022-12-12T20:15:27.524Z,101391.97
2022-12-12T20:18:00.189Z,101395.00
2022-12-12T20:20:28.794Z,101392.84
2022-12-12T20:22:58.534Z,101396.78
2022-12-12T20:25:26.891Z,101398.19
2022-12-12T20:27:55.203Z,101398.66
2022-12-12T20:30:23.425Z,101398.47
2022-12-12T20:32:52.080Z,101397.28
2022-12-12T20:35:20.399Z,101392.75
2022-12-12T20:37:48.891Z,101385.53
2022-12-12T20:40:18.803Z,101396.66
2022-12-12T20:42:54.980Z,101395.69
2022-12-12T20:45:25.541Z,101395.47
2022-12-12T20:47:53.963Z,101397.16
2022-12-12T20:50:22.387Z,101402.09
2022-12-12T20:52:50.726Z,101400.41
2022-12-12T20:55:20.338Z,101401.09
2022-12-12T20:57:48.606Z,101400.00
2022-12-12T21:00:17.534Z,101404.94
2022-12-12T21:02:45.812Z,101410.63
2022-12-12T21:05:14.462Z,101405.22
2022-12-12T21:07:43.058Z,101408.66
2022-12-12T21:10:11.531Z,101405.00
2022-12-12T21:12:41.282Z,101405.66
2022-12-12T21:15:10.743Z,101413.16
2022-12-12T21:17:39.072Z,101401.91
2022-12-12T21:20:09.011Z,101403.50
2022-12-12T21:22:37.311Z,101410.50
2022-12-12T21:25:06.366Z,101408.03
2022-12-12T21:27:34.646Z,101409.78
2022-12-12T21:30:05.654Z,101412.28
2022-12-12T21:32:34.097Z,101409.59
2022-12-12T21:35:02.365Z,101409.59
2022-12-12T21:37:31.916Z,101407.72
2022-12-12T21:40:02.923Z,101408.41
2022-12-12T21:42:31.359Z,101408.22
2022-12-12T21:44:59.988Z,101405.44
2022-12-12T21:47:29.789Z,101404.44
2022-12-12T21:49:58.087Z,101405.13
2022-12-12T21:52:26.314Z,101402.69
2022-12-12T21:54:55.008Z,101407.78
2022-12-12T21:57:25.089Z,101400.00
2022-12-12T21:59:53.672Z,101395.56
2022-12-12T22:02:22.033Z,101398.94
2022-12-12T22:04:51.746Z,101405.59
2022-12-12T22:07:20.878Z,101404.03
2022-12-12T22:09:57.441Z,101399.81
2022-12-12T22:12:37.491Z,101393.81
2022-12-12T22:15:06.993Z,101400.81
2022-12-12T22:17:35.274Z,101402.38
2022-12-12T22:20:05.490Z,101406.59
2022-12-12T22:22:33.904Z,101403.81
2022-12-12T22:25:02.190Z,101401.25
2022-12-12T22:27:31.047Z,101395.38
2022-12-12T22:29:59.379Z,101391.81
2022-12-12T22:32:29.360Z,101397.13
2022-12-12T22:34:58.567Z,101404.69
2022-12-12T22:37:28.237Z,101394.44
2022-12-12T22:39:56.534Z,101396.94
2022-12-12T22:42:24.868Z,101400.25
2022-12-12T22:44:53.486Z,101394.25
2022-12-12T22:47:23.796Z,101400.81
2022-12-12T22:49:52.952Z,101399.88
2022-12-12T22:52:21.232Z,101399.75
2022-12-12T22:54:50.855Z,101399.63
2022-12-12T22:57:19.227Z,101403.88
2022-12-12T22:59:47.627Z,101392.75
2022-12-12T23:02:21.526Z,101394.31
2022-12-12T23:04:53.137Z,101383.84
2022-12-12T23:07:21.527Z,101382.09
2022-12-12T23:09:54.254Z,101387.19
2022-12-12T23:12:23.288Z,101379.41
2022-12-12T23:14:51.499Z,101378.72
2022-12-12T23:17:19.880Z,101377.38
2022-12-12T23:19:48.367Z,101370.59
2022-12-12T23:22:16.593Z,101377.59
2022-12-12T23:24:45.111Z,101371.00
2022-12-12T23:27:14.776Z,101365.28
2022-12-12T23:29:43.611Z,101367.78
2022-12-12T23:32:12.208Z,101368.84
2022-12-12T23:34:40.838Z,101369.53
2022-12-12T23:37:09.459Z,101361.84
2022-12-12T23:39:37.932Z,101363.41
2022-12-12T23:42:06.398Z,101365.22
2022-12-12T23:44:36.114Z,101364.41
2022-12-12T23:47:04.373Z,101365.97
2022-12-12T23:49:32.613Z,101356.72
2022-12-12T23:52:02.421Z,101354.38
2022-12-12T23:54:33.689Z,101350.75
2022-12-12T23:57:03.308Z,101351.19
2022-12-12T23:59:32.202Z,101353.34
